createdAt,value
2022-07-29T00:02:02.543Z,82.96
2022-07-29T00:04:32.588Z,83.06
2022-07-29T00:07:02.629Z,82.78
2022-07-29T00:09:34.091Z,82.96
2022-07-29T00:12:26.125Z,82.98
2022-07-29T00:14:58.013Z,82.21
2022-07-29T00:17:28.485Z,81.77
2022-07-29T00:19:59.939Z,81.67
2022-07-29T00:22:29.940Z,81.46
2022-07-29T00:25:01.513Z,81.46
2022-07-29T00:27:31.533Z,81.75
2022-07-29T00:30:01.400Z,82.02
2022-07-29T00:32:31.270Z,81.96
2022-07-29T00:35:18.231Z,82.11
2022-07-29T00:37:48.162Z,82.11
2022-07-29T00:40:19.691Z,81.86
2022-07-29T00:42:55.075Z,82.06
2022-07-29T00:45:25.229Z,82.23
2022-07-29T00:47:55.191Z,82.63
2022-07-29T00:53:05.453Z,82.74
2022-07-29T00:55:35.437Z,82.47
2022-07-29T00:58:05.663Z,82.90
2022-07-29T01:00:35.767Z,82.77
2022-07-29T01:03:06.132Z,82.98
2022-07-29T01:05:51.134Z,82.75
2022-07-29T01:08:25.011Z,82.71
2022-07-29T01:10:55.787Z,82.81
2022-07-29T01:13:26.616Z,82.76
2022-07-29T01:16:04.357Z,82.92
2022-07-29T01:18:39.119Z,83.00
2022-07-29T01:21:49.948Z,82.58
2022-07-29T01:24:43.509Z,82.40
2022-07-29T01:27:42.029Z,82.86
2022-07-29T01:30:15.679Z,82.83
2022-07-29T01:32:50.691Z,82.72
2022-07-29T01:35:26.320Z,82.57
2022-07-29T01:38:04.111Z,82.38
2022-07-29T01:40:43.874Z,83.00
2022-07-29T01:43:20.413Z,82.88
2022-07-29T01:46:01.757Z,82.78
2022-07-29T01:48:42.333Z,82.70
2022-07-29T01:51:21.137Z,83.35
2022-07-29T01:53:58.510Z,83.09
2022-07-29T01:56:33.964Z,82.84
2022-07-29T01:59:07.272Z,82.60
2022-07-29T02:01:39.853Z,82.89
2022-07-29T02:04:29.266Z,82.72
2022-07-29T02:07:06.670Z,82.70
2022-07-29T02:09:39.608Z,82.38
2022-07-29T02:12:11.230Z,82.29
2022-07-29T02:14:47.746Z,83.03
2022-07-29T02:17:26.900Z,82.71
2022-07-29T02:20:01.168Z,82.44
2022-07-29T02:22:34.071Z,82.75
2022-07-29T02:25:05.250Z,82.49
2022-07-29T02:27:38.625Z,82.43
2022-07-29T02:30:12.854Z,82.95
2022-07-29T02:32:47.214Z,82.96
2022-07-29T02:35:18.979Z,83.38
2022-07-29T02:38:10.835Z,83.53
2022-07-29T02:40:43.679Z,83.21
2022-07-29T02:43:14.909Z,83.17
2022-07-29T02:45:46.248Z,82.80
2022-07-29T02:48:29.507Z,82.81
2022-07-29T02:51:09.676Z,83.08
2022-07-29T02:53:45.848Z,83.70
2022-07-29T02:56:20.209Z,83.46
2022-07-29T02:58:57.629Z,83.87
2022-07-29T03:01:31.059Z,83.84
2022-07-29T03:04:07.327Z,84.52
2022-07-29T03:06:39.095Z,85.22
2022-07-29T03:09:13.617Z,84.83
2022-07-29T03:11:50.422Z,84.33
2022-07-29T03:14:22.131Z,84.34
2022-07-29T03:16:53.690Z,83.84
2022-07-29T03:19:25.566Z,83.59
2022-07-29T03:21:55.568Z,83.49
2022-07-29T03:24:34.106Z,83.49
2022-07-29T03:27:05.029Z,83.40
2022-07-29T03:29:36.230Z,83.71
2022-07-29T03:32:09.044Z,84.15
2022-07-29T03:34:41.772Z,83.98
2022-07-29T03:37:12.110Z,83.93
2022-07-29T03:39:45.190Z,83.88
2022-07-29T03:42:18.455Z,84.23
2022-07-29T03:44:51.739Z,84.35
2022-07-29T03:47:47.960Z,84.32
2022-07-29T03:50:22.739Z,84.23
2022-07-29T03:54:07.855Z,84.13
2022-07-29T03:56:47.491Z,83.84
2022-07-29T03:59:18.886Z,83.97
2022-07-29T04:01:50.186Z,84.01
2022-07-29T04:04:20.706Z,84.14
2022-07-29T04:06:50.827Z,84.06
2022-07-29T04:09:22.398Z,83.83
2022-07-29T04:12:02.523Z,84.11
2022-07-29T04:14:35.733Z,84.25
2022-07-29T04:17:07.411Z,84.19
2022-07-29T04:19:37.750Z,84.19
2022-07-29T04:22:07.735Z,84.17
2022-07-29T04:24:41.845Z,83.70
2022-07-29T04:27:13.987Z,84.06
2022-07-29T04:29:55.977Z,83.55
2022-07-29T04:32:27.908Z,83.59
2022-07-29T04:34:57.881Z,83.12
2022-07-29T04:37:27.731Z,83.09
2022-07-29T04:39:59.310Z,83.16
2022-07-29T04:42:29.432Z,82.70
2022-07-29T04:45:01.367Z,82.40
2022-07-29T04:47:31.393Z,82.24
2022-07-29T04:50:01.288Z,82.08
2022-07-29T04:52:31.305Z,81.59
2022-07-29T04:55:02.745Z,81.40
2022-07-29T04:57:32.789Z,81.05
2022-07-29T05:00:02.789Z,80.79
2022-07-29T05:02:32.803Z,80.78
2022-07-29T05:05:02.900Z,80.45
2022-07-29T05:07:32.909Z,79.99
2022-07-29T05:10:04.449Z,79.83
2022-07-29T05:12:34.326Z,79.28
2022-07-29T05:15:04.236Z,78.65
2022-07-29T05:17:35.076Z,78.45
2022-07-29T05:20:05.312Z,78.33
2022-07-29T05:22:35.355Z,78.36
2022-07-29T05:25:09.301Z,77.58
2022-07-29T05:27:39.716Z,77.65
2022-07-29T05:30:11.497Z,76.76
2022-07-29T05:32:41.431Z,76.19
2022-07-29T05:35:12.736Z,75.58
2022-07-29T05:37:43.088Z,75.18
2022-07-29T05:40:14.971Z,75.49
2022-07-29T05:42:44.949Z,74.69
2022-07-29T05:45:15.167Z,74.54
2022-07-29T05:47:45.031Z,73.87
2022-07-29T05:50:15.137Z,73.27
2022-07-29T05:52:45.079Z,71.88
2022-07-29T05:55:16.779Z,67.38
2022-07-29T05:57:46.925Z,64.48
2022-07-29T06:00:17.970Z,61.97
2022-07-29T06:02:47.852Z,58.03
2022-07-29T06:05:19.131Z,58.81
2022-07-29T06:07:50.874Z,58.39
2022-07-29T06:10:26.086Z,59.10
2022-07-29T06:12:56.248Z,58.01
2022-07-29T06:15:26.488Z,55.76
2022-07-29T06:17:59.364Z,53.37
2022-07-29T06:20:32.543Z,53.64
2022-07-29T06:23:05.769Z,54.05
2022-07-29T06:25:38.028Z,52.81
2022-07-29T06:28:08.205Z,54.06
2022-07-29T06:30:38.229Z,52.96
2022-07-29T06:33:08.364Z,50.85
2022-07-29T06:35:41.801Z,52.75
2022-07-29T06:38:30.137Z,52.33
2022-07-29T06:41:03.940Z,51.21
2022-07-29T06:43:51.741Z,50.14
2022-07-29T06:46:25.782Z,51.26
2022-07-29T06:48:56.180Z,51.42
2022-07-29T06:54:03.770Z,50.29
2022-07-29T06:56:38.272Z,51.05
2022-07-29T06:59:09.120Z,49.64
2022-07-29T07:01:40.352Z,47.53
2022-07-29T07:04:10.854Z,48.47
2022-07-29T07:06:41.214Z,49.66
2022-07-29T07:09:12.629Z,49.25
2022-07-29T07:11:42.667Z,49.01
2022-07-29T07:14:12.506Z,47.36
2022-07-29T07:16:42.628Z,46.74
2022-07-29T07:19:12.585Z,47.90
2022-07-29T07:21:44.210Z,47.57
2022-07-29T07:24:15.779Z,44.36
2022-07-29T07:26:46.046Z,45.03
2022-07-29T07:29:15.970Z,46.74
2022-07-29T07:31:46.948Z,45.26
2022-07-29T07:34:17.132Z,45.42
2022-07-29T07:36:58.792Z,44.83
2022-07-29T07:39:30.188Z,46.43
2022-07-29T07:42:00.209Z,45.10
2022-07-29T07:44:30.323Z,43.31
2022-07-29T07:47:03.864Z,44.03
2022-07-29T07:49:42.641Z,44.33
2022-07-29T07:52:15.227Z,42.24
2022-07-29T07:54:46.907Z,45.14
2022-07-29T07:57:17.635Z,41.31
2022-07-29T07:59:47.831Z,42.63
2022-07-29T08:02:17.959Z,42.55
2022-07-29T08:04:47.964Z,41.22
2022-07-29T08:07:18.043Z,42.58
2022-07-29T08:09:49.427Z,43.42
2022-07-29T08:12:19.455Z,41.56
2022-07-29T08:14:49.379Z,42.83
2022-07-29T08:17:19.291Z,43.04
2022-07-29T08:19:49.726Z,39.46
2022-07-29T08:22:19.626Z,39.06
2022-07-29T08:24:55.799Z,41.15
2022-07-29T08:27:43.062Z,38.21
2022-07-29T08:30:14.747Z,41.73
2022-07-29T08:32:53.909Z,41.18
2022-07-29T08:35:24.743Z,41.78
2022-07-29T08:37:54.764Z,40.47
2022-07-29T08:40:30.535Z,40.31
2022-07-29T08:43:08.467Z,40.71
2022-07-29T08:45:48.643Z,39.43
2022-07-29T08:48:21.350Z,39.46
2022-07-29T08:50:58.502Z,39.94
2022-07-29T08:53:31.915Z,37.68
2022-07-29T08:56:03.938Z,38.32
2022-07-29T08:58:38.280Z,40.13
2022-07-29T09:01:12.399Z,37.97
2022-07-29T09:03:45.220Z,36.83
2022-07-29T09:06:18.247Z,38.42
2022-07-29T09:08:48.636Z,40.11
2022-07-29T09:11:20.251Z,38.66
2022-07-29T09:13:50.968Z,38.73
2022-07-29T09:16:43.845Z,38.05
2022-07-29T09:19:26.728Z,37.50
2022-07-29T09:22:03.224Z,40.25
2022-07-29T09:24:48.702Z,37.97
2022-07-29T09:27:30.191Z,37.07
2022-07-29T09:30:01.982Z,38.13
2022-07-29T09:32:32.407Z,38.75
2022-07-29T09:35:22.390Z,38.32
2022-07-29T09:37:53.084Z,37.90
2022-07-29T09:40:25.985Z,36.96
2022-07-29T09:42:58.589Z,37.66
2022-07-29T09:45:34.953Z,36.91
2022-07-29T09:48:19.765Z,34.72
2022-07-29T09:54:05.307Z,39.18
2022-07-29T09:56:45.283Z,37.99
2022-07-29T09:59:15.304Z,38.06
2022-07-29T10:01:46.085Z,37.14
2022-07-29T10:04:16.190Z,36.60
2022-07-29T10:07:04.882Z,36.39
2022-07-29T10:09:37.857Z,37.52
2022-07-29T10:12:15.030Z,36.17
2022-07-29T10:14:45.930Z,34.84
2022-07-29T10:17:15.875Z,35.66
2022-07-29T10:19:46.337Z,35.13
2022-07-29T10:22:31.156Z,35.65
2022-07-29T10:25:08.704Z,36.50
2022-07-29T10:27:39.128Z,36.33
2022-07-29T10:30:11.096Z,36.22
2022-07-29T10:33:13.406Z,34.82
2022-07-29T10:36:10.161Z,36.15
2022-07-29T10:38:57.673Z,34.77
2022-07-29T10:41:52.417Z,35.61
2022-07-29T10:44:25.158Z,36.04
2022-07-29T10:46:56.398Z,36.71
2022-07-29T10:49:30.706Z,36.22
2022-07-29T10:52:05.989Z,35.98
2022-07-29T10:54:52.332Z,34.15
2022-07-29T10:57:57.688Z,36.12
2022-07-29T11:00:34.331Z,36.20
2022-07-29T11:03:10.801Z,36.07
2022-07-29T11:06:00.308Z,34.14
2022-07-29T11:08:32.168Z,36.60
2022-07-29T11:11:36.991Z,34.54
2022-07-29T11:14:10.210Z,34.87
2022-07-29T11:17:06.269Z,35.86
2022-07-29T11:19:40.258Z,36.50
2022-07-29T11:22:16.614Z,35.02
2022-07-29T11:24:50.193Z,33.88
2022-07-29T11:27:23.409Z,35.14
2022-07-29T11:30:04.664Z,34.99
2022-07-29T11:32:41.974Z,33.88
2022-07-29T11:35:19.251Z,35.35
2022-07-29T11:38:31.762Z,34.75
2022-07-29T11:41:27.549Z,33.69
2022-07-29T11:43:59.969Z,36.38
2022-07-29T11:46:53.948Z,35.70
2022-07-29T11:49:31.700Z,34.94
2022-07-29T11:52:04.309Z,33.71
2022-07-29T11:54:38.920Z,34.37
2022-07-29T11:57:36.630Z,34.65
2022-07-29T12:00:12.702Z,34.89
2022-07-29T12:02:48.314Z,34.88
2022-07-29T12:05:36.039Z,34.07
2022-07-29T12:08:20.989Z,32.58
2022-07-29T12:10:52.778Z,34.14
2022-07-29T12:13:37.818Z,32.98
2022-07-29T12:16:08.731Z,34.16
2022-07-29T12:18:46.009Z,34.14
2022-07-29T12:21:15.472Z,35.08
2022-07-29T12:24:01.777Z,35.76
2022-07-29T12:26:35.899Z,35.97
2022-07-29T12:29:11.240Z,36.78
2022-07-29T12:31:57.886Z,36.75
2022-07-29T12:34:32.355Z,36.71
2022-07-29T12:37:02.330Z,36.03
2022-07-29T12:39:32.790Z,36.02
2022-07-29T12:42:03.771Z,37.06
2022-07-29T12:44:48.081Z,36.22
2022-07-29T12:47:19.406Z,35.84
2022-07-29T12:49:51.645Z,35.76
2022-07-29T12:54:12.689Z,34.83
2022-07-29T12:56:44.298Z,35.09
2022-07-29T12:59:20.300Z,35.57
2022-07-29T13:01:52.277Z,36.08
2022-07-29T13:04:29.718Z,36.87
2022-07-29T13:07:06.876Z,36.90
2022-07-29T13:09:46.751Z,37.25
2022-07-29T13:12:18.092Z,37.71
2022-07-29T13:14:51.172Z,37.88
2022-07-29T13:17:24.375Z,38.08
2022-07-29T13:20:07.304Z,39.72
2022-07-29T13:22:39.150Z,38.71
2022-07-29T13:25:12.140Z,39.12
2022-07-29T13:27:42.928Z,40.41
2022-07-29T13:30:14.486Z,40.74
2022-07-29T13:32:44.096Z,41.23
2022-07-29T13:35:14.651Z,40.79
2022-07-29T13:37:45.452Z,39.66
2022-07-29T13:40:17.472Z,40.64
2022-07-29T13:42:47.582Z,42.14
2022-07-29T13:45:18.036Z,43.11
2022-07-29T13:47:49.291Z,44.38
2022-07-29T13:50:19.172Z,41.99
2022-07-29T13:52:49.890Z,39.92
2022-07-29T13:55:21.454Z,39.19
2022-07-29T13:57:51.019Z,38.64
2022-07-29T14:00:21.511Z,37.72
2022-07-29T14:02:51.516Z,36.07
2022-07-29T14:05:21.701Z,36.11
2022-07-29T14:07:51.893Z,36.68
2022-07-29T14:10:23.525Z,36.44
2022-07-29T14:12:53.585Z,37.25
2022-07-29T14:15:24.668Z,35.22
2022-07-29T14:17:54.698Z,36.20
2022-07-29T14:20:24.692Z,37.27
2022-07-29T14:22:54.639Z,36.53
2022-07-29T14:25:26.383Z,37.20
2022-07-29T14:27:56.738Z,37.35
2022-07-29T14:30:28.629Z,37.04
2022-07-29T14:32:58.554Z,37.09
2022-07-29T14:35:28.769Z,36.08
2022-07-29T14:37:58.790Z,36.27
2022-07-29T14:40:30.547Z,37.73
2022-07-29T14:43:00.629Z,37.69
2022-07-29T14:45:30.797Z,36.83
2022-07-29T14:48:01.273Z,36.29
2022-07-29T14:50:32.005Z,37.30
2022-07-29T14:53:02.564Z,36.94
2022-07-29T14:55:34.188Z,38.13
2022-07-29T14:58:10.922Z,38.42
2022-07-29T15:00:41.847Z,38.73
2022-07-29T15:03:11.915Z,38.89
2022-07-29T15:05:41.424Z,38.76
2022-07-29T15:08:11.047Z,38.87
2022-07-29T15:10:42.025Z,39.10
2022-07-29T15:13:11.697Z,39.36
2022-07-29T15:15:42.516Z,40.10
2022-07-29T15:18:12.120Z,42.06
2022-07-29T15:20:41.848Z,41.17
2022-07-29T15:23:11.444Z,42.68
2022-07-29T15:25:42.803Z,44.61
2022-07-29T15:28:12.264Z,44.92
2022-07-29T15:30:43.123Z,44.12
2022-07-29T15:33:13.027Z,43.82
2022-07-29T15:35:42.551Z,42.86
2022-07-29T15:38:12.147Z,42.40
2022-07-29T15:40:44.828Z,41.87
2022-07-29T15:43:14.992Z,41.05
2022-07-29T15:46:06.954Z,40.71
2022-07-29T15:48:36.808Z,40.09
2022-07-29T15:54:05.213Z,40.73
2022-07-29T15:56:35.746Z,41.33
2022-07-29T15:59:05.848Z,41.06
2022-07-29T16:01:36.930Z,41.21
2022-07-29T16:04:12.691Z,41.04
2022-07-29T16:06:42.727Z,41.41
2022-07-29T16:09:14.856Z,41.64
2022-07-29T16:11:44.969Z,41.88
2022-07-29T16:14:15.284Z,41.95
2022-07-29T16:16:45.655Z,42.06
2022-07-29T16:19:15.752Z,42.09
2022-07-29T16:21:45.828Z,42.37
2022-07-29T16:24:17.332Z,42.33
2022-07-29T16:26:47.254Z,42.25
2022-07-29T16:29:18.512Z,42.55
2022-07-29T16:31:48.430Z,42.85
2022-07-29T16:34:18.392Z,43.43
2022-07-29T16:36:48.455Z,43.35
2022-07-29T16:39:19.729Z,44.83
2022-07-29T16:41:49.746Z,46.08
2022-07-29T16:44:19.600Z,46.43
2022-07-29T16:46:49.628Z,47.47
2022-07-29T16:49:20.025Z,48.99
2022-07-29T16:51:50.028Z,49.27
2022-07-29T16:54:21.577Z,49.95
2022-07-29T16:56:51.509Z,51.19
2022-07-29T16:59:21.404Z,52.04
2022-07-29T17:01:51.837Z,52.32
2022-07-29T17:04:22.936Z,52.82
2022-07-29T17:06:53.105Z,53.58
2022-07-29T17:09:24.495Z,53.75
2022-07-29T17:11:55.225Z,54.33
2022-07-29T17:14:28.032Z,54.85
2022-07-29T17:17:01.634Z,55.49
2022-07-29T17:19:36.571Z,55.72
2022-07-29T17:22:15.626Z,55.69
2022-07-29T17:24:51.272Z,56.11
2022-07-29T17:27:21.696Z,55.81
2022-07-29T17:29:51.646Z,55.58
2022-07-29T17:32:21.644Z,56.22
2022-07-29T17:34:51.849Z,56.34
2022-07-29T17:37:22.268Z,56.73
2022-07-29T17:39:57.317Z,56.88
2022-07-29T17:42:30.054Z,56.72
2022-07-29T17:45:00.150Z,56.23
2022-07-29T17:47:30.093Z,56.19
2022-07-29T17:50:00.119Z,56.31
2022-07-29T17:52:30.026Z,57.11
2022-07-29T17:55:01.687Z,57.55
2022-07-29T17:57:31.727Z,57.69
2022-07-29T18:00:01.637Z,57.46
2022-07-29T18:02:31.757Z,57.72
2022-07-29T18:05:01.916Z,57.17
2022-07-29T18:07:31.767Z,58.02
2022-07-29T18:10:03.477Z,57.18
2022-07-29T18:12:33.406Z,57.05
2022-07-29T18:15:03.349Z,57.04
2022-07-29T18:17:34.480Z,56.40
2022-07-29T18:20:23.169Z,56.46
2022-07-29T18:22:53.084Z,56.26
2022-07-29T18:25:24.751Z,55.73
2022-07-29T18:27:59.883Z,55.02
2022-07-29T18:30:31.344Z,55.68
2022-07-29T18:36:04.240Z,54.32
2022-07-29T18:38:42.429Z,53.84
2022-07-29T18:41:13.769Z,54.02
2022-07-29T18:43:43.733Z,53.57
2022-07-29T18:46:13.936Z,53.09
2022-07-29T18:48:44.265Z,52.81
2022-07-29T18:54:02.746Z,51.72
2022-07-29T18:56:32.607Z,51.18
2022-07-29T18:59:02.688Z,51.15
2022-07-29T19:01:32.858Z,51.16
2022-07-29T19:04:03.212Z,51.16
2022-07-29T19:06:33.195Z,50.82
2022-07-29T19:09:04.828Z,50.61
2022-07-29T19:11:34.672Z,50.70
2022-07-29T19:14:05.152Z,50.81
2022-07-29T19:16:35.245Z,50.76
2022-07-29T19:19:05.969Z,50.60
2022-07-29T19:21:36.292Z,50.62
2022-07-29T19:24:13.722Z,50.82
2022-07-29T19:26:47.099Z,51.22
2022-07-29T19:29:17.710Z,51.20
2022-07-29T19:31:47.628Z,50.88
2022-07-29T19:34:17.596Z,51.07
2022-07-29T19:36:47.713Z,50.29
2022-07-29T19:39:19.166Z,50.89
2022-07-29T19:42:05.824Z,50.90
2022-07-29T19:44:35.947Z,50.88
2022-07-29T19:47:05.828Z,51.00
2022-07-29T19:49:38.134Z,51.19
2022-07-29T19:52:09.024Z,50.84
2022-07-29T19:54:40.590Z,50.73
2022-07-29T19:57:10.408Z,50.56
2022-07-29T19:59:40.710Z,50.66
2022-07-29T20:02:12.611Z,50.97
2022-07-29T20:04:42.386Z,50.81
2022-07-29T20:07:13.558Z,51.40
2022-07-29T20:09:46.263Z,51.19
2022-07-29T20:12:16.223Z,51.98
2022-07-29T20:14:46.168Z,52.28
2022-07-29T20:17:16.207Z,51.77
2022-07-29T20:19:46.228Z,51.94
2022-07-29T20:22:21.002Z,51.80
2022-07-29T20:24:52.888Z,51.54
2022-07-29T20:27:22.852Z,51.49
2022-07-29T20:29:52.786Z,51.36
2022-07-29T20:32:23.272Z,51.27
2022-07-29T20:34:53.206Z,52.22
2022-07-29T20:37:23.045Z,51.89
2022-07-29T20:39:54.574Z,52.10
2022-07-29T20:42:24.365Z,52.37
2022-07-29T20:44:54.327Z,52.22
2022-07-29T20:47:24.328Z,52.08
2022-07-29T20:49:54.555Z,52.82
2022-07-29T20:52:24.465Z,52.94
2022-07-29T20:54:55.868Z,53.52
2022-07-29T20:57:39.379Z,54.01
2022-07-29T21:00:12.516Z,55.01
2022-07-29T21:02:42.200Z,55.58
2022-07-29T21:05:12.949Z,56.62
2022-07-29T21:07:43.092Z,56.93
2022-07-29T21:10:14.609Z,57.54
2022-07-29T21:12:44.526Z,57.39
2022-07-29T21:15:16.607Z,58.06
2022-07-29T21:17:48.513Z,58.75
2022-07-29T21:20:20.876Z,59.35
2022-07-29T21:22:50.910Z,59.32
2022-07-29T21:25:22.370Z,59.54
2022-07-29T21:28:09.377Z,59.62
2022-07-29T21:30:39.530Z,59.96
2022-07-29T21:33:09.573Z,60.50
2022-07-29T21:36:14.884Z,60.03
2022-07-29T21:38:30.333Z,60.73
2022-07-29T21:41:02.209Z,60.71
2022-07-29T21:43:32.490Z,61.89
2022-07-29T21:46:03.547Z,62.28
2022-07-29T21:48:33.405Z,63.02
2022-07-29T21:54:02.407Z,65.18
2022-07-29T21:56:32.892Z,64.26
2022-07-29T21:59:02.792Z,65.04
2022-07-29T22:01:39.335Z,64.85
2022-07-29T22:04:09.893Z,65.19
2022-07-29T22:06:39.963Z,65.42
2022-07-29T22:09:11.537Z,65.37
2022-07-29T22:11:42.309Z,65.04
2022-07-29T22:14:12.698Z,65.45
2022-07-29T22:16:42.973Z,65.47
2022-07-29T22:19:13.070Z,66.61
2022-07-29T22:21:43.866Z,66.19
2022-07-29T22:24:15.309Z,66.90
2022-07-29T22:26:45.168Z,67.37
2022-07-29T22:29:17.909Z,67.31
2022-07-29T22:31:47.913Z,68.32
2022-07-29T22:34:18.229Z,68.03
2022-07-29T22:36:48.047Z,69.22
2022-07-29T22:39:19.589Z,69.20
2022-07-29T22:41:49.547Z,69.29
2022-07-29T22:44:19.623Z,69.19
2022-07-29T22:46:49.468Z,69.55
2022-07-29T22:49:19.461Z,69.12
2022-07-29T22:51:49.390Z,69.19
2022-07-29T22:54:21.008Z,69.48
2022-07-29T22:56:50.896Z,69.20
2022-07-29T22:59:22.428Z,69.42
2022-07-29T23:01:52.258Z,69.68
2022-07-29T23:04:24.114Z,70.04
2022-07-29T23:06:54.126Z,70.98
2022-07-29T23:09:25.593Z,70.87
2022-07-29T23:11:55.426Z,70.88
2022-07-29T23:14:25.406Z,71.98
2022-07-29T23:16:55.348Z,73.24
2022-07-29T23:19:25.319Z,73.44
2022-07-29T23:21:55.268Z,74.41
2022-07-29T23:24:26.689Z,73.98
2022-07-29T23:26:56.645Z,74.06
2022-07-29T23:29:26.724Z,73.86
2022-07-29T23:31:56.551Z,73.19
2022-07-29T23:34:26.628Z,73.72
2022-07-29T23:36:56.537Z,74.20
2022-07-29T23:39:28.127Z,73.62
2022-07-29T23:41:58.114Z,74.54
2022-07-29T23:44:28.230Z,74.02
2022-07-29T23:46:58.475Z,74.08
2022-07-29T23:49:28.731Z,74.36
2022-07-29T23:51:58.690Z,74.88
2022-07-29T23:54:30.126Z,75.53
2022-07-29T23:57:00.468Z,75.79
2022-07-29T23:59:30.583Z,75.23
